createdAt,value
2018-05-07T00:00:48.955Z,9.83
2018-05-07T00:03:14.816Z,9.81
2018-05-07T00:05:40.684Z,9.78
2018-05-07T00:08:06.595Z,9.75
2018-05-07T00:10:32.484Z,9.76
2018-05-07T00:12:58.466Z,9.76
2018-05-07T00:15:24.367Z,9.74
2018-05-07T00:17:50.239Z,9.72
2018-05-07T00:20:16.096Z,9.70
2018-05-07T00:22:42.005Z,9.70
2018-05-07T00:25:08.063Z,9.69
2018-05-07T00:27:33.940Z,9.67
2018-05-07T00:29:59.864Z,9.64
2018-05-07T00:32:25.733Z,9.65
2018-05-07T00:34:51.606Z,9.59
2018-05-07T00:37:17.625Z,9.58
2018-05-07T00:39:43.503Z,9.58
2018-05-07T00:42:09.372Z,9.56
2018-05-07T00:44:35.296Z,9.56
2018-05-07T00:47:01.173Z,9.54
2018-05-07T00:49:27.094Z,9.64
2018-05-07T00:51:53.037Z,9.59
2018-05-07T00:54:18.895Z,9.58
2018-05-07T00:56:44.811Z,9.59
2018-05-07T00:59:10.742Z,9.60
2018-05-07T01:01:36.706Z,9.60
2018-05-07T01:04:02.568Z,9.57
2018-05-07T01:06:29.352Z,9.54
2018-05-07T01:08:55.256Z,9.53
2018-05-07T01:11:21.111Z,9.47
2018-05-07T01:13:47.101Z,9.47
2018-05-07T01:16:12.950Z,9.42
2018-05-07T01:18:38.882Z,9.41
2018-05-07T01:21:04.800Z,9.38
2018-05-07T01:23:30.667Z,9.33
2018-05-07T01:25:56.631Z,9.32
2018-05-07T01:28:22.531Z,9.33
2018-05-07T01:30:48.403Z,9.30
2018-05-07T01:33:14.259Z,9.26
2018-05-07T01:35:40.503Z,9.23
2018-05-07T01:38:06.431Z,9.24
2018-05-07T01:40:32.325Z,9.20
2018-05-07T01:42:58.254Z,9.13
2018-05-07T01:45:24.144Z,9.08
2018-05-07T01:47:50.017Z,9.03
2018-05-07T01:50:16.027Z,9.02
2018-05-07T01:52:41.879Z,9.00
2018-05-07T01:55:07.783Z,8.99
2018-05-07T01:57:33.693Z,8.98
2018-05-07T01:59:59.572Z,8.91
2018-05-07T02:02:25.524Z,8.87
2018-05-07T02:04:51.435Z,8.82
2018-05-07T02:07:17.356Z,8.79
2018-05-07T02:09:43.233Z,8.74
2018-05-07T02:12:09.136Z,8.69
2018-05-07T02:14:35.086Z,8.68
2018-05-07T02:17:00.939Z,8.68
2018-05-07T02:19:26.903Z,8.67
2018-05-07T02:21:52.758Z,8.64
2018-05-07T02:24:18.633Z,8.63
2018-05-07T02:26:44.672Z,8.64
2018-05-07T02:29:10.536Z,8.59
2018-05-07T02:31:36.455Z,8.58
2018-05-07T02:34:02.364Z,8.58
2018-05-07T02:36:28.244Z,8.56
2018-05-07T02:38:54.202Z,8.55
2018-05-07T02:41:20.118Z,8.47
2018-05-07T02:43:46.017Z,8.47
2018-05-07T02:46:11.889Z,8.42
2018-05-07T02:48:37.813Z,8.39
2018-05-07T02:51:03.832Z,8.35
2018-05-07T02:53:29.687Z,8.33
2018-05-07T02:55:55.648Z,8.29
2018-05-07T02:58:21.530Z,8.26
2018-05-07T03:00:47.404Z,8.26
2018-05-07T03:03:13.351Z,8.22
2018-05-07T03:05:39.214Z,8.15
2018-05-07T03:08:05.566Z,8.11
2018-05-07T03:10:31.511Z,8.08
2018-05-07T03:12:57.384Z,8.07
2018-05-07T03:15:23.475Z,8.02
2018-05-07T03:17:49.422Z,8.01
2018-05-07T03:20:15.342Z,7.98
2018-05-07T03:22:41.213Z,7.97
2018-05-07T03:25:07.327Z,7.94
2018-05-07T03:27:33.191Z,7.95
2018-05-07T03:29:59.056Z,7.96
2018-05-07T03:32:24.952Z,7.98
2018-05-07T03:34:50.814Z,8.01
2018-05-07T03:37:16.686Z,7.99
2018-05-07T03:39:42.594Z,8.02
2018-05-07T03:42:08.463Z,8.01
2018-05-07T03:44:34.323Z,7.97
2018-05-07T03:47:00.236Z,7.97
2018-05-07T03:49:26.086Z,7.99
2018-05-07T03:51:51.940Z,8.01
2018-05-07T03:54:17.838Z,8.01
2018-05-07T03:56:43.689Z,7.99
2018-05-07T03:59:09.552Z,7.97
2018-05-07T04:01:35.457Z,7.98
2018-05-07T04:04:01.320Z,8.00
2018-05-07T04:06:28.048Z,8.02
2018-05-07T04:08:53.967Z,8.07
2018-05-07T04:11:19.845Z,8.08
2018-05-07T04:13:45.722Z,8.08
2018-05-07T04:16:11.744Z,8.09
2018-05-07T04:18:50.071Z,8.17
2018-05-07T04:21:15.999Z,8.22
2018-05-07T04:23:54.163Z,8.25
2018-05-07T04:26:20.126Z,8.31
2018-05-07T04:28:45.994Z,8.38
2018-05-07T04:31:11.856Z,8.45
2018-05-07T04:33:37.752Z,8.57
2018-05-07T04:36:03.651Z,8.63
2018-05-07T04:38:29.514Z,8.72
2018-05-07T04:40:55.411Z,8.77
2018-05-07T04:43:21.350Z,8.89
2018-05-07T04:45:47.163Z,8.99
2018-05-07T04:48:13.063Z,9.07
2018-05-07T04:50:38.932Z,9.20
2018-05-07T04:53:04.794Z,9.33
2018-05-07T04:55:30.687Z,9.46
2018-05-07T04:57:56.546Z,9.59
2018-05-07T05:00:22.425Z,9.78
2018-05-07T05:02:48.344Z,9.92
2018-05-07T05:05:14.313Z,10.08
2018-05-07T05:07:40.179Z,10.23
2018-05-07T05:10:06.059Z,10.37
2018-05-07T05:12:31.923Z,10.60
2018-05-07T05:14:57.807Z,10.73
2018-05-07T05:17:23.711Z,10.89
2018-05-07T05:19:49.571Z,11.35
2018-05-07T05:22:15.442Z,11.52
2018-05-07T05:24:41.343Z,11.82
2018-05-07T05:27:07.255Z,12.17
2018-05-07T05:29:33.116Z,12.37
2018-05-07T05:32:00.150Z,12.61
2018-05-07T05:34:26.025Z,12.81
2018-05-07T05:36:51.875Z,12.90
2018-05-07T05:39:17.770Z,13.08
2018-05-07T05:41:43.638Z,13.26
2018-05-07T05:44:09.489Z,13.39
2018-05-07T05:46:35.382Z,13.63
2018-05-07T05:49:01.237Z,13.73
2018-05-07T05:51:27.115Z,13.90
2018-05-07T05:53:53.053Z,13.91
2018-05-07T05:56:18.955Z,14.11
2018-05-07T05:58:44.843Z,14.18
2018-05-07T06:01:10.763Z,14.31
2018-05-07T06:03:36.646Z,14.61
2018-05-07T06:06:02.529Z,14.71
2018-05-07T06:08:28.443Z,14.91
2018-05-07T06:10:54.306Z,15.11
2018-05-07T06:13:20.167Z,15.24
2018-05-07T06:15:46.067Z,15.38
2018-05-07T06:18:11.915Z,15.51
2018-05-07T06:20:37.803Z,15.55
2018-05-07T06:23:03.695Z,15.56
2018-05-07T06:25:29.573Z,15.59
2018-05-07T06:27:55.479Z,15.80
2018-05-07T06:30:21.387Z,16.09
2018-05-07T06:32:47.252Z,16.20
2018-05-07T06:35:13.139Z,16.27
2018-05-07T06:37:39.055Z,16.38
2018-05-07T06:40:04.957Z,16.51
2018-05-07T06:42:30.840Z,16.68
2018-05-07T06:44:56.746Z,16.71
2018-05-07T06:47:22.645Z,16.87
2018-05-07T06:49:48.516Z,17.03
2018-05-07T06:52:14.498Z,17.03
2018-05-07T06:54:40.280Z,17.21
2018-05-07T06:57:06.164Z,17.36
2018-05-07T06:59:32.210Z,17.44
2018-05-07T07:01:58.202Z,17.66
2018-05-07T07:04:24.060Z,17.70
2018-05-07T07:06:49.966Z,17.81
2018-05-07T07:09:15.833Z,17.98
2018-05-07T07:11:41.704Z,18.15
2018-05-07T07:14:07.631Z,18.24
2018-05-07T07:16:33.510Z,18.46
2018-05-07T07:19:00.415Z,18.58
2018-05-07T07:21:26.323Z,18.45
2018-05-07T07:23:52.200Z,18.41
2018-05-07T07:26:18.061Z,18.63
2018-05-07T07:28:44.045Z,18.60
2018-05-07T07:31:09.928Z,18.75
2018-05-07T07:33:35.802Z,19.09
2018-05-07T07:36:01.759Z,19.08
2018-05-07T07:38:27.637Z,19.31
2018-05-07T07:40:53.571Z,19.55
2018-05-07T07:43:19.750Z,19.76
2018-05-07T07:45:45.640Z,19.97
2018-05-07T07:48:11.524Z,20.12
2018-05-07T07:50:37.433Z,20.07
2018-05-07T07:53:04.270Z,20.18
2018-05-07T07:55:30.261Z,20.31
2018-05-07T07:57:56.186Z,19.89
2018-05-07T08:00:22.070Z,20.26
2018-05-07T08:02:47.999Z,20.86
2018-05-07T08:05:14.015Z,20.93
2018-05-07T08:07:40.269Z,20.82
2018-05-07T08:10:06.130Z,21.11
2018-05-07T08:12:32.044Z,21.13
2018-05-07T08:14:57.938Z,21.31
2018-05-07T08:17:23.885Z,21.20
2018-05-07T08:19:49.808Z,21.37
2018-05-07T08:22:15.696Z,21.78
2018-05-07T08:24:41.602Z,22.14
2018-05-07T08:27:07.509Z,21.78
2018-05-07T08:29:33.459Z,21.84
2018-05-07T08:31:59.332Z,21.81
2018-05-07T08:34:25.267Z,22.36
2018-05-07T08:36:51.132Z,22.56
2018-05-07T08:39:17.022Z,22.33
2018-05-07T08:41:43.017Z,22.39
2018-05-07T08:44:08.926Z,22.69
2018-05-07T08:46:34.785Z,22.77
2018-05-07T08:49:01.990Z,23.17
2018-05-07T08:51:27.872Z,22.90
2018-05-07T08:53:54.679Z,23.65
2018-05-07T08:56:20.625Z,22.83
2018-05-07T08:58:46.505Z,22.95
2018-05-07T09:01:12.389Z,23.44
2018-05-07T09:03:38.319Z,23.71
2018-05-07T09:06:04.284Z,23.09
2018-05-07T09:08:30.906Z,23.07
2018-05-07T09:10:56.894Z,22.99
2018-05-07T09:13:22.779Z,23.68
2018-05-07T09:15:48.659Z,23.69
2018-05-07T09:18:14.694Z,23.18
2018-05-07T09:20:40.560Z,23.87
2018-05-07T09:23:06.431Z,23.67
2018-05-07T09:25:32.348Z,24.28
2018-05-07T09:27:58.221Z,24.15
2018-05-07T09:30:24.146Z,24.65
2018-05-07T09:32:50.142Z,24.23
2018-05-07T09:35:16.018Z,24.49
2018-05-07T09:37:41.954Z,25.09
2018-05-07T09:40:07.855Z,25.48
2018-05-07T09:42:33.836Z,24.68
2018-05-07T09:44:59.690Z,24.50
2018-05-07T09:47:25.598Z,24.74
2018-05-07T09:49:51.480Z,25.28
2018-05-07T09:52:17.383Z,24.96
2018-05-07T09:54:43.473Z,25.03
2018-05-07T09:57:09.362Z,25.41
2018-05-07T09:59:35.240Z,25.93
2018-05-07T10:02:01.212Z,25.89
2018-05-07T10:04:27.134Z,25.54
2018-05-07T10:06:53.122Z,25.84
2018-05-07T10:09:19.186Z,25.19
2018-05-07T10:11:45.071Z,25.49
2018-05-07T10:14:10.944Z,25.73
2018-05-07T10:16:36.865Z,25.38
2018-05-07T10:19:02.783Z,25.47
2018-05-07T10:21:28.655Z,25.86
2018-05-07T10:23:54.586Z,25.98
2018-05-07T10:26:20.479Z,26.40
2018-05-07T10:28:46.367Z,25.84
2018-05-07T10:31:12.304Z,25.73
2018-05-07T10:33:39.419Z,25.60
2018-05-07T10:36:05.427Z,25.57
2018-05-07T10:38:31.388Z,25.45
2018-05-07T10:40:57.298Z,26.28
2018-05-07T10:43:23.222Z,25.95
2018-05-07T10:45:49.132Z,26.10
2018-05-07T10:48:15.013Z,26.23
2018-05-07T10:50:40.875Z,26.51
2018-05-07T10:53:06.796Z,27.19
2018-05-07T10:55:32.690Z,27.34
2018-05-07T10:57:58.591Z,26.71
2018-05-07T11:00:24.501Z,26.59
2018-05-07T11:02:50.362Z,26.25
2018-05-07T11:05:17.278Z,26.47
2018-05-07T11:07:43.206Z,26.55
2018-05-07T11:10:09.055Z,26.13
2018-05-07T11:12:34.933Z,25.86
2018-05-07T11:15:00.895Z,26.69
2018-05-07T11:17:26.813Z,26.16
2018-05-07T11:19:52.706Z,26.70
2018-05-07T11:22:18.619Z,28.08
2018-05-07T11:24:44.493Z,28.01
2018-05-07T11:27:10.373Z,28.61
2018-05-07T11:29:36.329Z,28.76
2018-05-07T11:32:02.217Z,26.98
2018-05-07T11:34:28.805Z,27.63
2018-05-07T11:36:54.797Z,27.47
2018-05-07T11:39:20.661Z,28.43
2018-05-07T11:41:46.499Z,27.52
2018-05-07T11:44:12.535Z,27.19
2018-05-07T11:46:38.501Z,27.55
2018-05-07T11:49:04.430Z,26.29
2018-05-07T11:51:30.364Z,26.04
2018-05-07T11:53:56.292Z,25.76
2018-05-07T11:56:22.220Z,26.26
2018-05-07T11:58:48.137Z,26.45
2018-05-07T12:01:14.008Z,26.15
2018-05-07T12:03:40.003Z,27.64
2018-05-07T12:06:05.938Z,26.69
2018-05-07T12:08:31.803Z,26.78
2018-05-07T12:10:57.699Z,27.06
2018-05-07T12:13:23.630Z,26.42
2018-05-07T12:15:49.708Z,25.54
2018-05-07T12:18:15.614Z,25.79
2018-05-07T12:20:41.656Z,25.89
2018-05-07T12:23:07.614Z,25.36
2018-05-07T15:49:38.939Z,24.16
2018-05-07T15:52:04.857Z,24.28
2018-05-07T15:54:30.831Z,24.22
2018-05-07T15:56:56.879Z,24.15
2018-05-07T15:59:22.941Z,24.21
2018-05-07T16:01:48.919Z,23.97
2018-05-07T16:04:14.867Z,23.98
2018-05-07T16:06:41.357Z,23.85
2018-05-07T16:09:07.301Z,24.25
2018-05-07T16:11:33.225Z,24.01
2018-05-07T16:13:59.095Z,23.80
2018-05-07T16:16:24.979Z,23.75
2018-05-07T16:18:50.923Z,23.64
2018-05-07T16:21:16.854Z,23.92
2018-05-07T16:23:42.806Z,24.06
2018-05-07T16:26:08.715Z,23.91
2018-05-07T16:28:34.596Z,23.38
2018-05-07T16:31:00.475Z,23.34
2018-05-07T16:33:26.425Z,23.24
2018-05-07T16:35:52.336Z,23.16
2018-05-07T16:38:18.403Z,23.22
2018-05-07T16:40:44.565Z,23.13
2018-05-07T16:43:10.792Z,23.08
2018-05-07T16:45:36.720Z,23.04
2018-05-07T16:48:03.879Z,23.02
2018-05-07T16:50:29.734Z,22.94
2018-05-07T16:52:55.603Z,22.81
2018-05-07T16:55:21.515Z,22.76
2018-05-07T16:57:47.461Z,22.70
2018-05-07T17:00:13.498Z,22.57
2018-05-07T17:02:39.558Z,22.65
2018-05-07T17:05:05.617Z,22.50
2018-05-07T17:07:32.649Z,22.54
2018-05-07T17:09:58.608Z,22.34
2018-05-07T17:12:24.527Z,22.29
2018-05-07T17:14:50.458Z,22.07
2018-05-07T17:17:16.409Z,22.04
2018-05-07T17:19:42.419Z,21.93
2018-05-07T17:22:08.336Z,21.86
2018-05-07T17:24:34.256Z,21.69
2018-05-07T17:27:00.132Z,21.65
2018-05-07T17:29:26.013Z,21.62
2018-05-07T17:31:51.931Z,21.49
2018-05-07T17:34:17.872Z,21.45
2018-05-07T17:36:43.934Z,21.51
2018-05-07T17:39:10.054Z,21.39
2018-05-07T17:41:36.154Z,21.27
2018-05-07T17:44:14.755Z,21.12
2018-05-07T17:46:53.081Z,21.03
2018-05-07T17:49:19.078Z,20.91
2018-05-07T17:51:45.115Z,20.92
2018-05-07T17:54:11.297Z,20.79
2018-05-07T17:56:37.180Z,20.71
2018-05-07T17:59:03.063Z,20.61
2018-05-07T18:01:28.937Z,20.49
2018-05-07T18:03:55.185Z,20.39
2018-05-07T18:06:21.280Z,20.27
2018-05-07T18:08:47.269Z,20.12
2018-05-07T18:11:16.509Z,20.01
2018-05-07T18:13:42.546Z,19.88
2018-05-07T18:16:08.444Z,19.72
2018-05-07T18:18:34.477Z,19.62
2018-05-07T18:21:00.351Z,19.50
2018-05-07T18:23:26.277Z,19.36
2018-05-07T18:25:52.230Z,19.25
2018-05-07T18:28:18.171Z,19.13
2018-05-07T18:30:44.219Z,18.99
2018-05-07T18:33:12.116Z,18.88
2018-05-07T18:35:38.492Z,18.73
2018-05-07T18:38:04.551Z,18.58
2018-05-07T18:40:31.071Z,18.44
2018-05-07T18:42:58.317Z,18.28
2018-05-07T18:45:24.252Z,18.15
2018-05-07T18:47:50.985Z,17.96
2018-05-07T18:50:17.078Z,17.83
2018-05-07T18:52:43.768Z,17.70
2018-05-07T18:55:09.838Z,17.58
2018-05-07T18:57:35.710Z,17.43
2018-05-07T19:00:01.584Z,17.29
2018-05-07T19:02:27.570Z,17.16
2018-05-07T19:04:53.689Z,17.03
2018-05-07T19:07:19.725Z,16.91
2018-05-07T19:09:46.550Z,16.78
2018-05-07T19:12:13.393Z,16.65
2018-05-07T19:14:39.350Z,16.54
2018-05-07T19:17:05.304Z,16.45
2018-05-07T19:19:31.235Z,16.35
2018-05-07T19:21:57.157Z,16.26
2018-05-07T19:24:23.108Z,16.15
2018-05-07T19:26:49.617Z,16.06
2018-05-07T19:29:15.779Z,15.98
2018-05-07T19:31:42.183Z,15.88
2018-05-07T19:34:08.059Z,15.81
2018-05-07T19:36:33.994Z,15.75
2018-05-07T19:38:59.945Z,15.68
2018-05-07T19:41:25.821Z,15.63
2018-05-07T19:43:51.772Z,15.56
2018-05-07T19:46:17.742Z,15.50
2018-05-07T19:48:43.668Z,15.46
2018-05-07T19:51:09.547Z,15.44
2018-05-07T19:53:35.501Z,15.43
2018-05-07T19:56:01.408Z,15.45
2018-05-07T19:58:27.302Z,15.41
2018-05-07T20:00:53.293Z,15.43
2018-05-07T20:03:19.381Z,15.42
2018-05-07T20:05:45.313Z,15.36
2018-05-07T20:08:11.255Z,15.28
2018-05-07T20:10:37.144Z,15.26
2018-05-07T20:13:03.001Z,15.24
2018-05-07T20:15:28.964Z,15.21
2018-05-07T20:17:55.902Z,15.17
2018-05-07T20:20:21.798Z,15.12
2018-05-07T20:22:47.773Z,15.06
2018-05-07T20:25:13.706Z,15.01
2018-05-07T20:27:39.595Z,15.03
2018-05-07T20:30:05.581Z,14.98
2018-05-07T20:32:31.503Z,14.91
2018-05-07T20:34:57.387Z,14.86
2018-05-07T20:37:23.319Z,14.82
2018-05-07T20:39:49.215Z,14.77
2018-05-07T20:42:15.162Z,14.75
2018-05-07T20:44:41.271Z,14.72
2018-05-07T20:47:07.175Z,14.67
2018-05-07T20:49:33.060Z,14.61
2018-05-07T20:51:59.090Z,14.56
2018-05-07T20:54:25.017Z,14.51
2018-05-07T20:56:50.891Z,14.43
2018-05-07T20:59:16.882Z,14.38
2018-05-07T21:01:42.813Z,14.31
2018-05-07T21:04:08.732Z,14.24
2018-05-07T21:06:34.655Z,14.18
2018-05-07T21:09:00.525Z,14.13
2018-05-07T21:11:26.420Z,14.10
2018-05-07T21:13:52.331Z,14.05
2018-05-07T21:16:18.202Z,13.96
2018-05-07T21:18:44.075Z,13.92
2018-05-07T21:21:10.033Z,13.88
2018-05-07T21:23:35.975Z,13.84
2018-05-07T21:26:01.883Z,13.77
2018-05-07T21:28:27.820Z,13.71
2018-05-07T21:30:53.715Z,13.65
2018-05-07T21:33:19.597Z,13.61
2018-05-07T21:35:45.584Z,13.56
2018-05-07T21:38:11.440Z,13.53
2018-05-07T21:40:37.331Z,13.49
2018-05-07T21:43:03.257Z,13.45
2018-05-07T21:45:29.179Z,13.44
2018-05-07T21:47:55.058Z,13.43
2018-05-07T21:50:21.014Z,13.40
2018-05-07T21:52:46.888Z,13.36
2018-05-07T21:55:12.784Z,13.30
2018-05-07T21:57:38.732Z,13.25
2018-05-07T22:00:04.620Z,13.20
2018-05-07T22:02:30.892Z,13.16
2018-05-07T22:04:56.803Z,13.13
2018-05-07T22:07:22.709Z,13.08
2018-05-07T22:09:48.586Z,13.06
2018-05-07T22:12:14.590Z,13.02
2018-05-07T22:14:40.416Z,13.00
2018-05-07T22:17:06.331Z,12.96
2018-05-07T22:19:32.247Z,12.91
2018-05-07T22:21:58.157Z,12.88
2018-05-07T22:24:24.082Z,12.83
2018-05-07T22:26:50.036Z,12.83
2018-05-07T22:29:15.961Z,12.78
2018-05-07T22:31:41.856Z,12.75
2018-05-07T22:34:07.772Z,12.69
2018-05-07T22:36:33.642Z,12.66
2018-05-07T22:38:59.559Z,12.62
2018-05-07T22:41:25.508Z,12.57
2018-05-07T22:43:51.395Z,12.54
2018-05-07T22:46:17.380Z,12.49
2018-05-07T22:48:43.297Z,12.46
2018-05-07T22:51:09.184Z,12.40
2018-05-07T22:53:35.075Z,12.37
2018-05-07T22:56:00.991Z,12.33
2018-05-07T22:58:26.888Z,12.30
2018-05-07T23:00:52.881Z,12.27
2018-05-07T23:03:18.756Z,12.20
2018-05-07T23:05:44.622Z,12.19
2018-05-07T23:08:10.507Z,12.17
2018-05-07T23:10:36.471Z,12.19
2018-05-07T23:13:02.400Z,12.14
2018-05-07T23:15:28.273Z,12.10
2018-05-07T23:17:54.203Z,12.11
2018-05-07T23:20:20.125Z,12.05
2018-05-07T23:22:46.003Z,11.99
2018-05-07T23:25:11.925Z,11.95
2018-05-07T23:27:37.784Z,11.92
2018-05-07T23:30:03.647Z,11.84
2018-05-07T23:32:29.587Z,11.79
2018-05-07T23:34:55.485Z,11.73
2018-05-07T23:37:21.377Z,11.69
2018-05-07T23:39:47.316Z,11.64
2018-05-07T23:42:13.215Z,11.63
2018-05-07T23:44:49.272Z,11.59
2018-05-07T23:47:15.233Z,11.54
2018-05-07T23:49:41.102Z,11.51
2018-05-07T23:52:07.018Z,11.51
2018-05-07T23:54:32.916Z,11.47
2018-05-07T23:56:58.802Z,11.44
2018-05-07T23:59:24.726Z,11.38
